Oakfield, New York
Current Conditions -  °F | °C
As of 2:54 PM on Friday 24 Oct 2014 (Local Time) from KBUF Reporting Station
Broken Clouds Broken Clouds  
Wind Chill: 51°   Ceiling: 20000
Heat Index: 51°   Visibility: 10mi
Dew Point: 42°   Wind: 15mph
Humidity: 71%   Direction: 240°WSW
Pressure: 29.98"   Gusts: NA
Location:  43.07°N, 78.27°W
Report Text: KBUF 241854Z 24013KT 10SM FEW026 FEW150 BKN200 BKN250 11/06 A2998 RMK AO2 SLP155 T01060056
Loading
Personal Weather Stations






























Interactive Weather Map
Tropical Storm Tracking
New forecast layout! Learn more

10-Day Weather Forecast

Advertisements
Track Severe Weather on mobile